Terminal Aerodrome Forecast
Issued by NWS Atlanta, GA

Home | Current Version | Previous Version | Text Only | Print | Product List | Glossary On
Versions: 1 2 3 4 5 6 7 8 9 10 11 12 13 14 15 16 17 18 19 20 21 22 23 24 25 26 27 28 29 30
000
FTUS42 KFFC 221137
TAFCSG
TAF
KCSG 221137Z 2212/2312 14007KT 6SM -RA BR SCT006 BKN025
     FM221500 17010KT P6SM VCSH BKN015
     FM221700 21012KT 6SM -RA BR BKN020
      TEMPO 2217/2221 VRB15G25KT 3SM TSRA OVC012CB
     FM222100 22014KT 4SM TSRA OVC015CB
     FM230000 25014KT P6SM VCSH BKN030 BKN150
     FM230300 26012KT 5SM -RA BR BKN012=

USA.gov is the U.S. government's official web portal to all federal, state and local government web resources and services.